createdAt,value
2018-07-14T00:00:27.055Z,1012.74
2018-07-14T00:01:27.039Z,1012.70
2018-07-14T00:02:27.036Z,1012.70
2018-07-14T00:03:27.019Z,1012.70
2018-07-14T00:04:27.032Z,1012.71
2018-07-14T00:05:27.000Z,1012.69
2018-07-14T00:06:26.989Z,1012.69
2018-07-14T00:07:26.934Z,1012.67
2018-07-14T00:08:26.924Z,1012.71
2018-07-14T00:09:26.933Z,1012.62
2018-07-14T00:10:26.939Z,1012.70
2018-07-14T00:11:26.927Z,1012.64
2018-07-14T00:12:26.990Z,1012.64
2018-07-14T00:13:26.908Z,1012.69
2018-07-14T00:14:26.913Z,1012.62
2018-07-14T00:15:26.883Z,1012.64
2018-07-14T00:16:26.836Z,1012.59
2018-07-14T00:17:26.859Z,1012.59
2018-07-14T00:18:26.868Z,1012.60
2018-07-14T00:19:26.871Z,1012.63
2018-07-14T00:20:26.782Z,1012.65
2018-07-14T00:21:26.818Z,1012.64
2018-07-14T00:22:26.767Z,1012.61
2018-07-14T00:23:26.799Z,1012.66
2018-07-14T00:24:26.843Z,1012.62
2018-07-14T00:25:26.775Z,1012.58
2018-07-14T00:26:26.768Z,1012.59
2018-07-14T00:27:26.756Z,1012.57
2018-07-14T00:28:26.762Z,1012.59
2018-07-14T00:29:26.756Z,1012.54
2018-07-14T00:30:26.720Z,1012.54
2018-07-14T00:31:26.712Z,1012.55
2018-07-14T00:32:26.711Z,1012.57
2018-07-14T00:33:26.690Z,1012.57
2018-07-14T00:34:26.714Z,1012.56
2018-07-14T00:35:26.671Z,1012.59
2018-07-14T00:36:26.659Z,1012.59
2018-07-14T00:37:26.648Z,1012.54
2018-07-14T00:38:26.637Z,1012.59
2018-07-14T00:39:26.655Z,1012.62
2018-07-14T00:40:26.615Z,1012.67
2018-07-14T00:41:26.608Z,1012.62
2018-07-14T00:42:26.593Z,1012.62
2018-07-14T00:43:26.578Z,1012.65
2018-07-14T00:44:26.575Z,1012.67
2018-07-14T00:45:26.581Z,1012.69
2018-07-14T00:46:26.551Z,1012.68
2018-07-14T00:47:26.539Z,1012.66
2018-07-14T00:48:26.526Z,1012.72
2018-07-14T00:49:26.518Z,1012.73
2018-07-14T00:50:26.608Z,1012.70
2018-07-14T00:51:26.493Z,1012.69
2018-07-14T00:52:26.487Z,1012.70
2018-07-14T00:53:26.472Z,1012.75
2018-07-14T00:54:26.464Z,1012.74
2018-07-14T00:55:26.481Z,1012.73
2018-07-14T00:56:26.441Z,1012.74
2018-07-14T00:57:26.434Z,1012.71
2018-07-14T00:58:26.418Z,1012.72
2018-07-14T00:59:26.408Z,1012.77
2018-07-14T01:00:26.418Z,1012.78
2018-07-14T01:01:26.387Z,1012.75
2018-07-14T01:02:26.332Z,1012.76
2018-07-14T01:03:26.371Z,1012.77
2018-07-14T01:04:26.353Z,1012.79
2018-07-14T01:05:26.383Z,1012.78
2018-07-14T01:06:26.331Z,1012.80
2018-07-14T01:07:26.320Z,1012.79
2018-07-14T01:08:26.307Z,1012.77
2018-07-14T01:09:26.307Z,1012.78
2018-07-14T01:10:26.316Z,1012.82
2018-07-14T01:11:26.232Z,1012.77
2018-07-14T01:12:26.268Z,1012.78
2018-07-14T01:13:26.214Z,1012.82
2018-07-14T01:14:26.245Z,1012.81
2018-07-14T01:15:26.236Z,1012.79
2018-07-14T01:16:26.229Z,1012.79
2018-07-14T01:17:26.211Z,1012.77
2018-07-14T01:18:26.200Z,1012.81
2018-07-14T01:19:26.194Z,1012.75
2018-07-14T01:20:26.203Z,1012.82
2018-07-14T01:21:26.136Z,1012.81
2018-07-14T01:22:26.160Z,1012.81
2018-07-14T01:23:26.150Z,1012.80
2018-07-14T01:24:26.141Z,1012.79
2018-07-14T01:25:26.199Z,1012.80
2018-07-14T01:26:26.119Z,1012.80
2018-07-14T01:27:26.070Z,1012.77
2018-07-14T01:28:26.099Z,1012.82
2018-07-14T01:29:26.086Z,1012.81
2018-07-14T01:30:26.098Z,1012.83
2018-07-14T01:31:26.065Z,1012.83
2018-07-14T01:32:26.052Z,1012.81
2018-07-14T01:33:26.045Z,1012.86
2018-07-14T01:34:26.031Z,1012.87
2018-07-14T01:35:26.046Z,1012.90
2018-07-14T01:36:26.007Z,1012.92
2018-07-14T01:37:26.005Z,1012.91
2018-07-14T01:38:25.989Z,1012.87
2018-07-14T01:39:25.980Z,1012.89
2018-07-14T01:40:25.986Z,1012.86
2018-07-14T01:41:25.960Z,1012.82
2018-07-14T01:42:25.946Z,1012.82
2018-07-14T01:43:25.939Z,1012.84
2018-07-14T01:44:25.927Z,1012.86
2018-07-14T01:45:25.935Z,1012.85
2018-07-14T01:46:25.907Z,1012.86
2018-07-14T01:47:25.892Z,1012.83
2018-07-14T01:48:25.894Z,1012.84
2018-07-14T01:49:25.880Z,1012.87
2018-07-14T01:50:25.891Z,1012.84
2018-07-14T01:51:25.849Z,1012.88
2018-07-14T01:52:25.845Z,1012.90
2018-07-14T01:53:25.830Z,1012.93
2018-07-14T01:54:25.818Z,1012.88
2018-07-14T01:55:25.831Z,1012.90
2018-07-14T01:56:25.798Z,1012.89
2018-07-14T01:57:25.785Z,1012.89
2018-07-14T01:58:25.780Z,1012.90
2018-07-14T01:59:25.769Z,1012.91
2018-07-14T02:00:25.776Z,1012.87
2018-07-14T02:01:25.741Z,1012.87
2018-07-14T02:02:25.698Z,1012.88
2018-07-14T02:03:25.721Z,1012.89
2018-07-14T02:04:25.707Z,1012.89
2018-07-14T02:05:25.730Z,1012.87
2018-07-14T02:06:25.645Z,1012.87
2018-07-14T02:07:25.679Z,1012.88
2018-07-14T02:08:25.672Z,1012.86
2018-07-14T02:09:25.681Z,1012.87
2018-07-14T02:10:25.667Z,1012.85
2018-07-14T02:11:25.632Z,1012.86
2018-07-14T02:12:25.630Z,1012.83
2018-07-14T02:13:25.615Z,1012.82
2018-07-14T02:14:25.677Z,1012.84
2018-07-14T02:15:25.596Z,1012.84
2018-07-14T02:16:25.609Z,1012.86
2018-07-14T02:17:25.570Z,1012.87
2018-07-14T02:18:25.560Z,1012.87
2018-07-14T02:19:25.604Z,1012.85
2018-07-14T02:20:25.516Z,1012.88
2018-07-14T02:21:25.549Z,1012.87
2018-07-14T02:22:25.513Z,1012.89
2018-07-14T02:23:25.512Z,1012.83
2018-07-14T02:24:25.498Z,1012.86
2018-07-14T02:25:25.484Z,1012.82
2018-07-14T02:26:25.492Z,1012.83
2018-07-14T02:27:25.467Z,1012.84
2018-07-14T02:28:25.454Z,1012.81
2018-07-14T02:29:25.445Z,1012.83
2018-07-14T02:30:25.439Z,1012.82
2018-07-14T02:31:25.453Z,1012.87
2018-07-14T02:32:25.408Z,1012.88
2018-07-14T02:33:25.398Z,1012.87
2018-07-14T02:34:25.391Z,1012.87
2018-07-14T02:35:25.380Z,1012.87
2018-07-14T02:36:25.384Z,1012.90
2018-07-14T02:37:25.367Z,1012.87
2018-07-14T02:38:25.364Z,1012.91
2018-07-14T02:39:25.335Z,1012.87
2018-07-14T02:40:25.325Z,1012.85
2018-07-14T02:41:25.341Z,1012.84
2018-07-14T02:42:25.305Z,1012.88
2018-07-14T02:43:25.288Z,1012.88
2018-07-14T02:44:25.286Z,1012.84
2018-07-14T02:45:25.274Z,1012.82
2018-07-14T02:46:25.242Z,1012.87
2018-07-14T02:47:25.256Z,1012.92
2018-07-14T02:48:25.239Z,1012.96
2018-07-14T02:49:25.230Z,1012.99
2018-07-14T02:50:25.214Z,1012.98
2018-07-14T02:51:25.181Z,1013.01
2018-07-14T02:52:25.196Z,1013.02
2018-07-14T02:53:25.183Z,1013.00
2018-07-14T02:54:25.175Z,1012.99
2018-07-14T02:55:25.165Z,1012.99
2018-07-14T02:56:25.175Z,1012.98
2018-07-14T02:57:25.145Z,1012.96
2018-07-14T02:58:25.131Z,1012.95
2018-07-14T02:59:25.123Z,1012.97
2018-07-14T03:00:25.062Z,1012.95
2018-07-14T03:01:25.101Z,1012.94
2018-07-14T03:02:25.085Z,1012.95
2018-07-14T03:03:25.080Z,1012.96
2018-07-14T03:04:25.082Z,1012.99
2018-07-14T03:05:25.059Z,1012.99
2018-07-14T03:06:25.070Z,1012.99
2018-07-14T03:07:25.130Z,1013.01
2018-07-14T03:08:25.026Z,1012.99
2018-07-14T03:09:25.018Z,1012.99
2018-07-14T03:10:25.011Z,1012.94
2018-07-14T03:11:25.143Z,1012.96
2018-07-14T03:12:24.979Z,1012.98
2018-07-14T03:13:24.971Z,1012.98
2018-07-14T03:14:24.914Z,1012.94
2018-07-14T03:15:24.947Z,1013.00
2018-07-14T03:16:24.967Z,1012.99
2018-07-14T03:17:24.885Z,1013.02
2018-07-14T03:18:24.917Z,1013.01
2018-07-14T03:19:24.915Z,1012.98
2018-07-14T03:20:24.891Z,1013.04
2018-07-14T03:21:24.952Z,1012.95
2018-07-14T03:22:24.874Z,1012.94
2018-07-14T03:23:24.892Z,1012.91
2018-07-14T03:24:24.854Z,1012.95
2018-07-14T03:25:24.800Z,1012.92
2018-07-14T03:26:24.850Z,1012.93
2018-07-14T03:27:24.822Z,1012.96
2018-07-14T03:28:24.803Z,1012.91
2018-07-14T03:29:24.800Z,1012.96
2018-07-14T03:30:24.786Z,1012.99
2018-07-14T03:31:24.796Z,1012.98
2018-07-14T03:32:24.770Z,1012.96
2018-07-14T03:33:24.749Z,1013.00
2018-07-14T03:34:24.705Z,1012.97
2018-07-14T03:35:24.729Z,1012.99
2018-07-14T03:36:24.739Z,1012.99
2018-07-14T03:37:24.711Z,1012.96
2018-07-14T03:38:24.693Z,1012.96
2018-07-14T03:39:24.682Z,1013.00
2018-07-14T03:40:24.677Z,1013.01
2018-07-14T03:41:24.687Z,1013.00
2018-07-14T03:42:24.653Z,1012.99
2018-07-14T03:43:24.639Z,1012.97
2018-07-14T03:44:24.627Z,1012.97
2018-07-14T03:45:24.621Z,1012.99
2018-07-14T03:46:24.645Z,1012.99
2018-07-14T03:47:24.598Z,1012.98
2018-07-14T03:48:24.586Z,1013.00
2018-07-14T03:49:24.582Z,1013.01
2018-07-14T03:50:24.566Z,1013.00
2018-07-14T03:51:24.551Z,1013.00
2018-07-14T03:52:24.567Z,1013.02
2018-07-14T03:53:24.496Z,1013.00
2018-07-14T03:54:24.480Z,1012.96
2018-07-14T03:55:24.504Z,1012.97
2018-07-14T03:56:24.499Z,1012.95
2018-07-14T03:57:24.511Z,1012.98
2018-07-14T03:58:24.480Z,1012.95
2018-07-14T03:59:24.420Z,1012.93
2018-07-14T04:00:24.457Z,1012.94
2018-07-14T04:01:24.442Z,1012.96
2018-07-14T04:02:24.457Z,1012.93
2018-07-14T04:03:24.434Z,1012.96
2018-07-14T04:04:24.547Z,1012.99
2018-07-14T04:05:24.398Z,1012.98
2018-07-14T04:06:24.435Z,1012.97
2018-07-14T04:07:24.397Z,1012.98
2018-07-14T04:08:24.372Z,1012.93
2018-07-14T04:09:24.354Z,1012.99
2018-07-14T04:10:24.347Z,1012.97
2018-07-14T04:11:24.330Z,1013.01
2018-07-14T04:12:24.343Z,1012.98
2018-07-14T04:13:24.317Z,1013.02
2018-07-14T04:14:25.147Z,1013.06
2018-07-14T04:15:24.291Z,1013.03
2018-07-14T04:16:24.277Z,1013.06
2018-07-14T04:17:24.287Z,1013.00
2018-07-14T04:18:24.254Z,1013.03
2018-07-14T04:19:24.245Z,1013.02
2018-07-14T04:20:24.190Z,1013.02
2018-07-14T04:21:24.228Z,1013.03
2018-07-14T04:22:24.235Z,1013.05
2018-07-14T04:23:24.199Z,1013.00
2018-07-14T04:24:24.189Z,1013.03
2018-07-14T04:25:24.135Z,1013.03
2018-07-14T04:26:24.176Z,1013.06
2018-07-14T04:27:24.180Z,1013.05
2018-07-14T04:28:24.147Z,1013.02
2018-07-14T04:29:24.149Z,1013.05
2018-07-14T04:30:24.123Z,1013.09
2018-07-14T04:31:24.118Z,1013.07
2018-07-14T04:32:24.126Z,1013.11
2018-07-14T04:33:24.092Z,1013.12
2018-07-14T04:34:24.084Z,1013.14
2018-07-14T04:35:24.075Z,1013.12
2018-07-14T04:36:24.059Z,1013.13
2018-07-14T04:37:24.077Z,1013.09
2018-07-14T04:38:23.994Z,1013.14
2018-07-14T04:39:24.031Z,1013.15
2018-07-14T04:40:24.024Z,1013.15
2018-07-14T04:41:24.007Z,1013.18
2018-07-14T04:42:24.038Z,1013.13
2018-07-14T04:43:23.987Z,1013.16
2018-07-14T04:44:23.973Z,1013.15
2018-07-14T04:45:23.964Z,1013.18
2018-07-14T04:46:23.919Z,1013.18
2018-07-14T04:47:23.967Z,1013.20
2018-07-14T04:48:23.935Z,1013.23
2018-07-14T04:49:23.953Z,1013.24
2018-07-14T04:50:23.912Z,1013.24
2018-07-14T04:51:23.899Z,1013.26
2018-07-14T04:52:23.919Z,1013.25
2018-07-14T04:53:23.881Z,1013.24
2018-07-14T04:54:23.870Z,1013.22
2018-07-14T04:55:23.868Z,1013.22
2018-07-14T04:56:23.847Z,1013.24
2018-07-14T04:57:23.860Z,1013.22
2018-07-14T04:58:23.824Z,1013.24
2018-07-14T04:59:23.790Z,1013.21
2018-07-14T05:00:23.808Z,1013.25
2018-07-14T05:01:23.799Z,1013.26
2018-07-14T05:02:23.806Z,1013.26
2018-07-14T05:03:23.748Z,1013.28
2018-07-14T05:04:23.770Z,1013.26
2018-07-14T05:05:23.752Z,1013.25
2018-07-14T05:06:23.790Z,1013.27
2018-07-14T05:07:23.754Z,1013.25
2018-07-14T05:08:23.718Z,1013.27
2018-07-14T05:09:23.674Z,1013.24
2018-07-14T05:10:23.697Z,1013.29
2018-07-14T05:11:23.694Z,1013.27
2018-07-14T05:12:23.716Z,1013.29
2018-07-14T05:13:23.700Z,1013.21
2018-07-14T05:14:23.652Z,1013.17
2018-07-14T05:15:23.598Z,1013.17
2018-07-14T05:16:23.628Z,1013.14
2018-07-14T05:17:23.620Z,1013.17
2018-07-14T05:18:23.628Z,1013.22
2018-07-14T05:19:23.594Z,1013.21
2018-07-14T05:20:23.587Z,1013.19
2018-07-14T05:21:23.639Z,1013.19
2018-07-14T05:22:23.563Z,1013.19
2018-07-14T05:23:23.603Z,1013.21
2018-07-14T05:24:23.544Z,1013.21
2018-07-14T05:25:23.529Z,1013.18
2018-07-14T05:26:23.521Z,1013.23
2018-07-14T05:27:23.512Z,1013.19
2018-07-14T05:28:23.515Z,1013.21
2018-07-14T05:29:23.488Z,1013.20
2018-07-14T05:30:23.476Z,1013.22
2018-07-14T05:31:23.417Z,1013.24
2018-07-14T05:32:23.451Z,1013.22
2018-07-14T05:33:23.467Z,1013.22
2018-07-14T05:34:23.428Z,1013.24
2018-07-14T05:35:23.421Z,1013.24
2018-07-14T05:36:23.363Z,1013.26
2018-07-14T05:37:23.370Z,1013.24
2018-07-14T05:38:23.414Z,1013.24
2018-07-14T05:39:23.379Z,1013.20
2018-07-14T05:40:23.363Z,1013.21
2018-07-14T05:41:23.355Z,1013.20
2018-07-14T05:42:23.365Z,1013.19
2018-07-14T05:43:23.353Z,1013.18
2018-07-14T05:44:23.327Z,1013.18
2018-07-14T05:45:23.307Z,1013.20
2018-07-14T05:46:23.267Z,1013.18
2018-07-14T05:47:23.283Z,1013.23
2018-07-14T05:48:23.296Z,1013.27
2018-07-14T05:49:23.268Z,1013.26
2018-07-14T05:50:23.262Z,1013.24
2018-07-14T05:51:23.250Z,1013.25
2018-07-14T05:52:23.237Z,1013.27
2018-07-14T05:53:23.247Z,1013.29
2018-07-14T05:54:23.214Z,1013.24
2018-07-14T05:55:23.210Z,1013.29
2018-07-14T05:56:23.188Z,1013.30
2018-07-14T05:57:23.181Z,1013.28
2018-07-14T05:58:23.190Z,1013.30
2018-07-14T05:59:23.168Z,1013.36
2018-07-14T06:00:23.108Z,1013.32
2018-07-14T06:01:23.136Z,1013.34
2018-07-14T06:02:23.126Z,1013.33
2018-07-14T06:03:23.135Z,1013.29
2018-07-14T06:04:23.102Z,1013.31
2018-07-14T06:05:23.094Z,1013.33
2018-07-14T06:06:23.046Z,1013.30
2018-07-14T06:07:23.071Z,1013.36
2018-07-14T06:08:23.084Z,1013.36
2018-07-14T06:09:23.055Z,1013.34
2018-07-14T06:10:23.037Z,1013.38
2018-07-14T06:11:23.031Z,1013.41
2018-07-14T06:12:22.988Z,1013.39
2018-07-14T06:13:22.981Z,1013.36
2018-07-14T06:14:22.994Z,1013.33
2018-07-14T06:15:22.981Z,1013.36
2018-07-14T06:16:22.940Z,1013.36
2018-07-14T06:17:23.042Z,1013.37
2018-07-14T06:18:22.976Z,1013.35
2018-07-14T06:19:22.940Z,1013.36
2018-07-14T06:20:22.929Z,1013.35
2018-07-14T06:21:22.920Z,1013.37
2018-07-14T06:22:22.908Z,1013.38
2018-07-14T06:23:22.933Z,1013.37
2018-07-14T06:24:22.890Z,1013.39
2018-07-14T06:25:22.876Z,1013.32
2018-07-14T06:26:22.863Z,1013.35
2018-07-14T06:27:22.861Z,1013.42
2018-07-14T06:28:22.866Z,1013.44
2018-07-14T06:29:22.836Z,1013.53
2018-07-14T06:30:22.781Z,1013.53
2018-07-14T06:31:22.812Z,1013.54
2018-07-14T06:32:22.803Z,1013.58
2018-07-14T06:33:22.766Z,1013.60
2018-07-14T06:34:22.829Z,1013.56
2018-07-14T06:35:22.770Z,1013.60
2018-07-14T06:36:22.758Z,1013.57
2018-07-14T06:37:22.746Z,1013.60
2018-07-14T06:38:22.884Z,1013.62
2018-07-14T06:39:22.727Z,1013.58
2018-07-14T06:40:22.715Z,1013.58
2018-07-14T06:41:22.707Z,1013.60
2018-07-14T06:42:22.691Z,1013.65
2018-07-14T06:43:22.706Z,1013.64
2018-07-14T06:44:22.678Z,1013.63
2018-07-14T06:45:22.660Z,1013.63
2018-07-14T06:46:22.651Z,1013.61
2018-07-14T06:47:22.643Z,1013.66
2018-07-14T06:48:22.630Z,1013.64
2018-07-14T06:49:22.617Z,1013.61
2018-07-14T06:50:22.614Z,1013.61
2018-07-14T06:51:22.597Z,1013.65
2018-07-14T06:52:22.590Z,1013.64
2018-07-14T06:53:22.578Z,1013.68
2018-07-14T06:54:22.594Z,1013.63
2018-07-14T06:55:22.569Z,1013.66
2018-07-14T06:56:22.550Z,1013.66
2018-07-14T06:57:22.536Z,1013.64
2018-07-14T06:58:22.528Z,1013.67
2018-07-14T06:59:22.620Z,1013.63
2018-07-14T07:00:22.528Z,1013.63
2018-07-14T07:01:22.496Z,1013.68
2018-07-14T07:02:22.487Z,1013.68
2018-07-14T07:03:22.559Z,1013.70
2018-07-14T07:04:22.492Z,1013.68
2018-07-14T07:05:22.427Z,1013.68
2018-07-14T07:06:22.454Z,1013.72
2018-07-14T07:07:22.431Z,1013.69
2018-07-14T07:08:22.426Z,1013.68
2018-07-14T07:09:22.503Z,1013.67
2018-07-14T07:10:22.401Z,1013.71
2018-07-14T07:11:22.390Z,1013.72
2018-07-14T07:12:22.378Z,1013.73
2018-07-14T07:13:22.367Z,1013.72
2018-07-14T07:14:22.391Z,1013.69
2018-07-14T07:15:22.316Z,1013.76
2018-07-14T07:16:22.341Z,1013.74
2018-07-14T07:17:22.330Z,1013.69
2018-07-14T07:18:22.322Z,1013.73
2018-07-14T07:19:22.349Z,1013.75
2018-07-14T07:20:22.300Z,1013.72
2018-07-14T07:21:22.355Z,1013.74
2018-07-14T07:22:22.303Z,1013.74
2018-07-14T07:23:22.274Z,1013.76
2018-07-14T07:24:22.295Z,1013.72
2018-07-14T07:25:22.250Z,1013.74
2018-07-14T07:26:22.241Z,1013.79
2018-07-14T07:27:22.230Z,1013.77
2018-07-14T07:28:22.214Z,1013.77
2018-07-14T07:29:22.234Z,1013.78
2018-07-14T07:30:22.199Z,1013.75
2018-07-14T07:31:22.189Z,1013.79
2018-07-14T07:32:22.181Z,1013.81
2018-07-14T07:33:22.177Z,1013.78
2018-07-14T07:34:22.182Z,1013.77
2018-07-14T07:35:22.145Z,1013.74
2018-07-14T07:36:22.315Z,1013.76
2018-07-14T07:37:22.267Z,1013.76
2018-07-14T07:38:22.075Z,1013.77
2018-07-14T07:39:22.128Z,1013.77
2018-07-14T07:40:22.100Z,1013.70
2018-07-14T07:41:22.088Z,1013.71
2018-07-14T07:42:22.131Z,1013.73
2018-07-14T07:43:22.132Z,1013.72
2018-07-14T07:44:22.244Z,1013.73
2018-07-14T07:45:22.091Z,1013.77
2018-07-14T07:46:22.056Z,1013.78
2018-07-14T07:47:22.020Z,1013.75
2018-07-14T07:48:22.010Z,1013.74
2018-07-14T07:49:21.999Z,1013.77
2018-07-14T07:50:21.993Z,1013.79
2018-07-14T07:51:21.992Z,1013.81
2018-07-14T07:52:21.936Z,1013.78
2018-07-14T07:53:21.967Z,1013.81
2018-07-14T07:54:21.974Z,1013.82
2018-07-14T07:55:21.953Z,1013.83
2018-07-14T07:56:21.937Z,1013.79
2018-07-14T07:57:21.936Z,1013.77
2018-07-14T07:58:21.912Z,1013.81
2018-07-14T07:59:21.942Z,1013.73
2018-07-14T08:00:21.890Z,1013.74
2018-07-14T08:01:21.886Z,1013.72
2018-07-14T08:02:21.877Z,1013.71
2018-07-14T08:03:21.860Z,1013.68
2018-07-14T08:04:21.874Z,1013.70
2018-07-14T08:05:21.839Z,1013.74
2018-07-14T08:06:21.892Z,1013.75
2018-07-14T08:07:21.820Z,1013.73
2018-07-14T08:08:21.849Z,1013.74
2018-07-14T08:09:21.831Z,1013.75
2018-07-14T08:10:21.792Z,1013.74
2018-07-14T08:11:21.782Z,1013.76
2018-07-14T08:12:21.796Z,1013.74
2018-07-14T08:13:21.758Z,1013.72
2018-07-14T08:14:21.776Z,1013.69
2018-07-14T08:15:21.738Z,1013.74
2018-07-14T08:16:21.730Z,1013.71
2018-07-14T08:17:21.727Z,1013.68
2018-07-14T08:18:21.725Z,1013.70
2018-07-14T08:19:21.697Z,1013.69
2018-07-14T08:20:21.685Z,1013.73
2018-07-14T08:21:21.683Z,1013.67
2018-07-14T08:22:21.670Z,1013.70
2018-07-14T08:23:21.655Z,1013.69
2018-07-14T08:24:21.691Z,1013.66
2018-07-14T08:25:21.649Z,1013.73
2018-07-14T08:26:21.624Z,1013.68
2018-07-14T08:27:21.639Z,1013.68
2018-07-14T08:28:21.607Z,1013.65
2018-07-14T08:29:21.632Z,1013.59
2018-07-14T08:30:21.585Z,1013.61
2018-07-14T08:31:21.530Z,1013.62
2018-07-14T08:32:21.611Z,1013.60
2018-07-14T08:33:21.554Z,1013.58
2018-07-14T08:34:21.754Z,1013.55
2018-07-14T08:35:21.534Z,1013.58
2018-07-14T08:36:21.682Z,1013.55
2018-07-14T08:37:21.675Z,1013.59
2018-07-14T08:38:21.506Z,1013.55
2018-07-14T08:39:21.609Z,1013.55
2018-07-14T08:40:21.503Z,1013.55
2018-07-14T08:41:21.476Z,1013.50
2018-07-14T08:42:21.459Z,1013.54
2018-07-14T08:43:21.450Z,1013.55
2018-07-14T08:44:21.443Z,1013.55
2018-07-14T08:45:21.599Z,1013.52
2018-07-14T08:46:21.444Z,1013.52
2018-07-14T08:47:21.416Z,1013.51
2018-07-14T08:48:21.401Z,1013.46
2018-07-14T08:49:21.386Z,1013.41
2018-07-14T08:50:21.410Z,1013.40
2018-07-14T08:51:21.590Z,1013.44
2018-07-14T08:52:21.358Z,1013.40
2018-07-14T08:53:21.301Z,1013.37
2018-07-14T08:54:21.350Z,1013.29
2018-07-14T08:55:21.433Z,1013.31
2018-07-14T08:56:21.317Z,1013.23
2018-07-14T08:57:21.308Z,1013.23
2018-07-14T08:58:21.300Z,1013.19
2018-07-14T08:59:21.288Z,1013.22
2018-07-14T09:00:21.311Z,1013.24
2018-07-14T09:01:21.247Z,1013.14
2018-07-14T09:02:21.253Z,1013.16
2018-07-14T09:03:21.211Z,1013.19
2018-07-14T09:04:21.236Z,1013.12
2018-07-14T09:05:21.274Z,1013.20
2018-07-14T09:06:21.215Z,1013.13
2018-07-14T09:07:21.163Z,1013.13
2018-07-14T09:08:21.192Z,1013.14
2018-07-14T09:09:21.197Z,1013.16
2018-07-14T09:10:21.217Z,1013.10
2018-07-14T09:11:21.159Z,1013.11
2018-07-14T09:12:21.151Z,1013.14
2018-07-14T09:13:21.149Z,1013.07
2018-07-14T09:14:21.137Z,1013.16
2018-07-14T09:15:21.157Z,1013.12
2018-07-14T09:16:21.147Z,1013.09
2018-07-14T09:17:21.097Z,1013.11
2018-07-14T09:18:21.089Z,1013.13
2018-07-14T09:19:21.086Z,1013.11
2018-07-14T09:20:21.093Z,1013.12
2018-07-14T09:21:21.055Z,1013.06
2018-07-14T09:22:21.050Z,1013.05
2018-07-14T09:23:21.045Z,1013.08
2018-07-14T09:24:20.991Z,1013.14
2018-07-14T09:25:21.036Z,1013.12
2018-07-14T09:26:21.012Z,1013.11
2018-07-14T09:27:21.009Z,1013.08
2018-07-14T09:28:20.983Z,1013.06
2018-07-14T09:29:20.978Z,1013.07
2018-07-14T09:30:20.981Z,1013.08
2018-07-14T09:31:20.949Z,1013.06
2018-07-14T09:32:20.942Z,1013.03
2018-07-14T09:33:20.977Z,1013.03
2018-07-14T09:34:20.916Z,1013.04
2018-07-14T09:35:20.942Z,1013.01
2018-07-14T09:36:20.898Z,1012.99
2018-07-14T09:37:20.890Z,1012.97
2018-07-14T09:38:20.875Z,1013.01
2018-07-14T09:39:20.867Z,1013.03
2018-07-14T09:40:20.876Z,1012.98
2018-07-14T09:41:20.843Z,1012.99
2018-07-14T09:42:20.853Z,1013.01
2018-07-14T09:43:20.833Z,1012.95
2018-07-14T09:44:20.822Z,1012.96
2018-07-14T09:45:20.834Z,1012.93
2018-07-14T09:46:20.804Z,1012.92
2018-07-14T09:47:20.784Z,1012.92
2018-07-14T09:48:20.742Z,1012.91
2018-07-14T09:49:20.766Z,1012.92
2018-07-14T09:50:20.779Z,1012.90
2018-07-14T09:51:20.746Z,1012.90
2018-07-14T09:52:20.740Z,1012.82
2018-07-14T09:53:20.718Z,1012.84
2018-07-14T09:54:20.681Z,1012.84
2018-07-14T09:55:20.825Z,1012.81
2018-07-14T09:56:20.684Z,1012.80
2018-07-14T09:57:20.680Z,1012.83
2018-07-14T09:58:20.660Z,1012.78
2018-07-14T09:59:20.655Z,1012.80
2018-07-14T10:00:20.687Z,1012.74
2018-07-14T10:01:20.637Z,1012.77
2018-07-14T10:02:20.619Z,1012.79
2018-07-14T10:03:20.673Z,1012.74
2018-07-14T10:04:20.606Z,1012.75
2018-07-14T10:05:20.622Z,1012.77
2018-07-14T10:06:20.580Z,1012.78
2018-07-14T10:07:20.569Z,1012.72
2018-07-14T10:08:20.558Z,1012.70
2018-07-14T10:09:20.505Z,1012.69
2018-07-14T10:10:20.560Z,1012.72
2018-07-14T10:11:20.525Z,1012.71
2018-07-14T10:12:20.518Z,1012.73
2018-07-14T10:13:20.560Z,1012.63
2018-07-14T10:14:20.494Z,1012.59
2018-07-14T10:15:20.509Z,1012.60
2018-07-14T10:16:20.469Z,1012.65
2018-07-14T10:17:20.517Z,1012.57
2018-07-14T10:18:20.461Z,1012.58
2018-07-14T10:19:20.440Z,1012.62
2018-07-14T10:20:20.447Z,1012.63
2018-07-14T10:21:20.427Z,1012.59
2018-07-14T10:22:20.455Z,1012.57
2018-07-14T10:23:20.399Z,1012.57
2018-07-14T10:24:20.384Z,1012.60
2018-07-14T10:25:20.618Z,1012.52
2018-07-14T10:26:20.377Z,1012.53
2018-07-14T10:27:20.352Z,1012.52
2018-07-14T10:28:20.347Z,1012.54
2018-07-14T10:29:20.287Z,1012.47
2018-07-14T10:30:20.328Z,1012.49
2018-07-14T10:31:20.346Z,1012.45
2018-07-14T10:32:20.303Z,1012.44
2018-07-14T10:33:20.287Z,1012.51
2018-07-14T10:34:20.280Z,1012.49
2018-07-14T10:35:20.278Z,1012.49
2018-07-14T10:36:20.281Z,1012.49
2018-07-14T10:37:20.257Z,1012.47
2018-07-14T10:38:20.239Z,1012.46
2018-07-14T10:39:20.230Z,1012.41
2018-07-14T10:40:20.215Z,1012.41
2018-07-14T10:41:20.365Z,1012.43
2018-07-14T10:42:20.261Z,1012.39
2018-07-14T10:43:20.292Z,1012.41
2018-07-14T10:44:20.187Z,1012.37
2018-07-14T10:45:20.172Z,1012.39
2018-07-14T10:46:20.181Z,1012.39
2018-07-14T10:47:20.110Z,1012.38
2018-07-14T10:48:20.132Z,1012.43
2018-07-14T10:49:20.129Z,1012.39
2018-07-14T10:50:20.104Z,1012.41
2018-07-14T10:51:20.232Z,1012.41
2018-07-14T10:52:20.088Z,1012.43
2018-07-14T10:53:20.071Z,1012.40
2018-07-14T10:54:20.074Z,1012.37
2018-07-14T10:55:20.060Z,1012.37
2018-07-14T10:56:20.033Z,1012.33
2018-07-14T10:57:20.017Z,1012.35
2018-07-14T10:58:20.038Z,1012.30
2018-07-14T10:59:20.011Z,1012.32
2018-07-14T11:00:19.998Z,1012.29
2018-07-14T11:01:20.015Z,1012.33
2018-07-14T11:02:19.981Z,1012.29
2018-07-14T11:03:19.931Z,1012.20
2018-07-14T11:04:19.921Z,1012.19
2018-07-14T11:05:19.947Z,1012.22
2018-07-14T11:06:19.978Z,1012.26
2018-07-14T11:07:19.927Z,1012.17
2018-07-14T11:08:19.976Z,1012.20
2018-07-14T11:09:19.908Z,1012.20
2018-07-14T11:10:19.905Z,1012.17
2018-07-14T11:11:19.912Z,1012.16
2018-07-14T11:12:19.886Z,1012.14
2018-07-14T11:13:19.872Z,1012.11
2018-07-14T11:14:19.807Z,1012.13
2018-07-14T11:15:19.815Z,1012.11
2018-07-14T11:16:19.852Z,1012.13
2018-07-14T11:17:19.819Z,1012.10
2018-07-14T11:18:19.817Z,1012.06
2018-07-14T11:19:19.800Z,1012.06
2018-07-14T11:20:19.764Z,1012.05
2018-07-14T11:21:19.821Z,1012.02
2018-07-14T11:22:19.776Z,1012.04
2018-07-14T11:23:19.768Z,1012.02
2018-07-14T11:24:19.750Z,1012.05
2018-07-14T11:25:19.696Z,1012.07
2018-07-14T11:26:19.749Z,1012.03
2018-07-14T11:27:19.717Z,1012.09
2018-07-14T11:28:19.704Z,1012.03
2018-07-14T11:29:19.699Z,1011.94
2018-07-14T11:30:19.779Z,1011.98
2018-07-14T11:31:19.698Z,1012.03
2018-07-14T11:32:19.664Z,1012.00
2018-07-14T11:33:19.654Z,1012.02
2018-07-14T11:34:19.657Z,1011.99
2018-07-14T11:35:19.634Z,1011.91
2018-07-14T11:36:19.606Z,1011.95
2018-07-14T11:37:19.610Z,1011.89
2018-07-14T11:38:19.601Z,1011.90
2018-07-14T11:39:19.590Z,1011.87
2018-07-14T11:40:19.546Z,1011.86
2018-07-14T11:41:19.590Z,1011.86
2018-07-14T11:42:19.559Z,1011.84
2018-07-14T11:43:19.550Z,1011.84
2018-07-14T11:44:19.509Z,1011.87
2018-07-14T11:45:19.533Z,1011.86
2018-07-14T11:46:19.640Z,1011.87
2018-07-14T11:47:19.516Z,1011.81
2018-07-14T11:48:19.508Z,1011.85
2018-07-14T11:49:19.486Z,1011.84
2018-07-14T11:50:19.500Z,1011.84
2018-07-14T11:51:19.442Z,1011.82
2018-07-14T11:52:19.461Z,1011.80
2018-07-14T11:53:19.445Z,1011.85
2018-07-14T11:54:19.493Z,1011.77
2018-07-14T11:55:19.379Z,1011.82
2018-07-14T11:56:19.438Z,1011.80
2018-07-14T11:57:19.404Z,1011.82
2018-07-14T11:58:19.395Z,1011.80
2018-07-14T11:59:19.395Z,1011.78
2018-07-14T12:00:19.379Z,1011.74
2018-07-14T12:01:19.386Z,1011.80
2018-07-14T12:02:19.347Z,1011.81
2018-07-14T12:03:19.336Z,1011.76
2018-07-14T12:04:19.333Z,1011.76
2018-07-14T12:05:19.333Z,1011.80